Data for 09/02/2008

Time Sea-Level Adjusted Pressure Absolute Pressure Temperature Relative Humidity Dew Point   
(mb) (inHg) (mb) (inHg) (C) (F) (%) (C) (F)
00:05 1024 30.24 854 25.22 5.4 41.8 88 3.7 38.6
00:10 1024 30.24 854 25.22 5.3 41.5 88 3.5 38.3
00:15 1025 30.27 854 25.22 5.3 41.5 87 3.3 37.9
00:20 1025 30.27 854 25.22 5.3 41.5 89 3.6 38.5
00:25 1025 30.27 854 25.22 5.2 41.4 88 3.4 38.2
00:30 1025 30.27 854 25.22 5.3 41.5 88 3.5 38.3
00:35 1025 30.27 854 25.22 5.3 41.5 88 3.4 38.2
00:40 1025 30.27 854 25.22 5 41.1 88 3.3 37.9
00:45 1025 30.27 854 25.22 5 40.9 87 2.9 37.3
00:50 1025 30.27 854 25.22 4.9 40.9 87 2.9 37.3
00:55 1025 30.27 854 25.22 4.9 40.8 89 3.2 37.7
01:00 1025 30.27 854 25.22 4.9 40.8 87 2.9 37.1
01:05 1025 30.27 854 25.22 4.9 40.7 90 3.4 38.1
01:10 1025 30.27 854 25.22 4.9 40.8 87 2.9 37.2
01:15 1025 30.27 854 25.22 4.8 40.7 86 2.7 36.9
01:20 1025 30.27 854 25.22 4.8 40.7 86 2.6 36.7
01:25 1025 30.27 854 25.22 4.8 40.7 85 2.5 36.5
01:30 1025 30.27 854 25.22 4.9 40.7 82 2 35.7
01:35 1025 30.27 854 25.22 5 40.9 83 2.3 36.1
01:40 1025 30.27 854 25.22 5.1 41.1 83 2.5 36.5
01:45 1025 30.27 854 25.22 4.9 40.9 84 2.5 36.5
01:50 1025 30.27 854 25.22 4.8 40.7 86 2.7 36.8
01:55 1025 30.27 854 25.22 4.9 40.7 90 3.3 37.9
02:00 1025 30.27 854 25.22 4.9 40.8 88 3.1 37.5
02:05 1025 30.27 854 25.22 5 40.9 88 3.1 37.7
02:10 1025 30.27 854 25.22 4.9 40.9 87 2.9 37.3
02:15 1025 30.27 854 25.22 4.9 40.7 89 3.2 37.7
02:20 1025 30.27 854 25.22 4.7 40.4 87 2.8 37
02:25 1025 30.27 854 25.22 4.6 40.2 89 2.9 37.3
02:30 1025 30.27 854 25.22 4.6 40.3 90 3.1 37.6
02:35 1025 30.27 854 25.22 4.5 40.1 94 3.6 38.4
02:40 1025 30.27 854 25.22 4.5 40 93 3.4 38.1
02:45 1025 30.27 854 25.22 4.5 40.1 88 2.6 36.8
02:50 1025 30.27 854 25.22 4.6 40.2 87 2.6 36.7
02:55 1025 30.27 854 25.22 4.7 40.4 88 2.8 37.1
03:00 1025 30.27 854 25.22 4.6 40.3 90 3.1 37.6
03:05 1025 30.27 854 25.22 4.4 40 90 2.9 37.3
03:10 1025 30.27 854 25.22 4.5 40.1 89 2.8 37.1
03:15 1025 30.27 854 25.22 4.6 40.2 90 3.1 37.6
03:20 1025 30.27 854 25.22 4.6 40.3 89 3 37.4
03:25 1025 30.27 854 25.22 4.5 40.2 91 3.2 37.7
03:30 1025 30.27 854 25.22 4.5 40.2 92 3.3 37.9
03:35 1025 30.27 854 25.22 4.6 40.2 91 3.2 37.7
03:40 1025 30.27 854 25.22 4.7 40.5 90 3.3 37.9
03:45 1025 30.27 854 25.22 4.9 40.8 90 3.5 38.2
03:50 1025 30.27 854 25.22 4.9 40.8 92 3.7 38.7
03:55 1025 30.27 854 25.22 4.8 40.6 93 3.7 38.7
04:00 1025 30.27 854 25.22 4.5 40.1 94 3.6 38.6
04:05 1025 30.27 854 25.22 4.4 39.9 94 3.5 38.3
04:10 1025 30.27 854 25.22 4.4 39.9 92 3.3 37.9
04:15 1025 30.27 854 25.22 4.5 40.1 92 3.3 37.9
04:20 1025 30.27 854 25.22 4.5 40.2 92 3.4 38.2
04:25 1025 30.27 854 25.22 4.6 40.2 91 3.3 37.9
04:30 1025 30.27 854 25.22 4.6 40.2 92 3.3 38
04:35 1025 30.27 854 25.22 4.6 40.3 92 3.5 38.2
04:40 1025 30.27 854 25.22 4.7 40.4 89 3 37.4
04:45 1025 30.27 854 25.22 4.8 40.6 90 3.2 37.8
04:50 1025 30.27 854 25.22 4.8 40.7 86 2.7 36.9
04:55 1025 30.27 854 25.22 4.9 40.8 86 2.8 37
05:00 1025 30.27 854 25.22 5 40.9 87 2.9 37.3
05:05 1025 30.27 854 25.22 4.9 40.8 88 3 37.5
05:10 1025 30.27 854 25.22 4.9 40.8 90 3.4 38
05:15 1025 30.27 854 25.22 4.9 40.8 87 2.9 37.2
05:20 1025 30.27 854 25.22 5 41.1 84 2.6 36.7
05:25 1025 30.27 854 25.22 5.2 41.4 85 2.9 37.2
05:30 1025 30.27 854 25.22 5.2 41.4 90 3.8 38.8
05:35 1025 30.27 854 25.22 4.8 40.6 91 3.5 38.2
05:40 1025 30.27 854 25.22 4.7 40.5 92 3.5 38.3
05:45 1025 30.27 854 25.22 4.8 40.6 91 3.4 38.1
05:50 1025 30.27 854 25.22 4.8 40.7 90 3.4 38
05:55 1025 30.27 854 25.22 4.9 40.9 91 3.6 38.5
06:00 1025 30.27 854 25.22 5 41 85 2.7 36.9
06:05 1025 30.27 854 25.22 5.3 41.5 80 2.1 35.8
06:10 1025 30.27 854 25.22 5.6 42.1 85 3.3 38
06:15 1025 30.27 854 25.22 5.6 42.1 87 3.6 38.6
06:20 1025 30.27 854 25.22 5.5 41.9 88 3.6 38.4
06:25 1025 30.27 854 25.22 5.3 41.6 87 3.3 37.9
06:30 1025 30.27 854 25.22 5.2 41.4 87 3.2 37.7
06:35 1025 30.27 854 25.22 5.1 41.1 90 3.5 38.3
06:40 1025 30.27 854 25.22 4.8 40.7 91 3.5 38.3
06:45 1025 30.27 854 25.22 4.8 40.6 91 3.4 38.1
06:50 1025 30.27 855 25.25 4.9 40.8 88 3.1 37.6
06:55 1025 30.27 855 25.25 5 41 87 3.1 37.6
07:00 1025 30.27 855 25.25 5.1 41.1 86 2.9 37.3
07:05 1025 30.27 855 25.25 5 41.1 88 3.2 37.8
07:10 1025 30.27 855 25.25 5.1 41.1 89 3.4 38.1
07:15 1026 30.3 855 25.25 4.9 40.8 92 3.6 38.5
07:20 1026 30.3 855 25.25 4.6 40.4 92 3.4 38.2
07:25 1026 30.3 855 25.25 4.6 40.3 92 3.5 38.3
07:30 1026 30.3 855 25.25 4.7 40.4 92 3.5 38.2
07:35 1026 30.3 855 25.25 5 41.1 90 3.5 38.2
07:40 1026 30.3 855 25.25 5.7 42.3 86 3.6 38.4
07:45 1026 30.3 855 25.25 5.7 42.3 86 3.6 38.6
07:50 1026 30.3 855 25.25 5.8 42.5 84 3.4 38.1
07:55 1026 30.3 855 25.25 6.3 43.3 82 3.4 38.2
08:00 1026 30.3 855 25.25 6.7 44.1 80 3.4 38.2
08:05 1026 30.3 855 25.25 6.6 43.9 79 3.3 38
08:10 1026 30.3 855 25.25 6.8 44.3 75 2.8 37
08:15 1026 30.3 855 25.25 7.3 45.2 73 2.9 37.2
08:20 1026 30.3 855 25.25 7.7 45.8 72 3.1 37.5
08:25 1026 30.3 855 25.25 8 46.5 70 2.8 37.1
08:30 1026 30.3 855 25.25 8.7 47.6 66 2.6 36.7
08:35 1026 30.3 855 25.25 9.3 48.7 66 3.3 37.9
08:40 1026 30.3 855 25.25 9.2 48.5 67 3.3 37.9
08:45 1026 30.3 855 25.25 9.1 48.4 68 3.6 38.5
08:50 1026 30.3 855 25.25 9.4 48.9 65 3.2 37.8
08:55 1026 30.3 855 25.25 9.3 48.7 66 3.2 37.8
09:00 1026 30.3 855 25.25 8.7 47.7 68 3.3 37.9
09:05 1026 30.3 855 25.25 8.8 47.8 66 2.9 37.1
09:10 1026 30.3 855 25.25 9.2 48.5 63 2.5 36.5
09:15 1026 30.3 855 25.25 9 48.2 61 2 35.5
09:20 1026 30.3 855 25.25 9.8 49.6 60 2.4 36.3
09:25 1026 30.3 855 25.25 10.7 51.3 56 2.4 36.4
09:30 1026 30.3 855 25.25 11.2 52.1 58 3.3 38
09:35 1026 30.3 855 25.25 11 51.7 58 3.1 37.5
09:40 1026 30.3 855 25.25 11.2 52.2 55 2.5 36.4
09:45 1026 30.3 855 25.25 10.6 51 61 3.5 38.3
09:50 1026 30.3 855 25.25 10.2 50.4 58 2.3 36.1
09:55 1026 30.3 855 25.25 11.1 52 55 2.5 36.5
10:00 1026 30.3 855 25.25 11.3 52.3 55 2.5 36.6
10:05 1026 30.3 856 25.28 11.2 52.1 52 1.8 35.3
10:10 1026 30.3 856 25.28 11.7 53.1 51 1.9 35.5
10:15 1026 30.3 856 25.28 12.1 53.7 48 1.4 34.5
10:20 1026 30.3 856 25.28 11.3 52.4 54 2.5 36.5
10:25 1026 30.3 856 25.28 10.8 51.5 54 1.9 35.4
10:30 1026 30.3 856 25.28 11.8 53.3 52 2.2 36
10:35 1026 30.3 856 25.28 12.5 54.4 47 1.6 34.9
10:40 1026 30.3 856 25.28 13.1 55.6 44 1.2 34.1
10:45 1026 30.3 856 25.28 13.1 55.6 45 1.7 35
10:50 1026 30.3 856 25.28 13.4 56 43 1.1 33.9
10:55 1026 30.3 856 25.28 12.6 54.7 40 -0.6 31
11:00 1026 30.3 856 25.28 11.8 53.2 41 -1.1 30
11:05 1027 30.33 856 25.28 12 53.6 39 -1.4 29.4
11:10 1027 30.33 856 25.28 12.9 55.3 35 -2.1 28.2
11:15 1027 30.33 856 25.28 13.7 56.6 33 -2.1 28.2
11:20 1027 30.33 856 25.28 13.1 55.5 37 -1.3 29.6
11:25 1027 30.33 856 25.28 13.2 55.8 33 -2.5 27.5
11:30 1027 30.33 856 25.28 13.8 56.8 34 -1.6 29.2
11:35 1027 30.33 856 25.28 14.4 58 33 -1.5 29.3
11:40 1027 30.33 856 25.28 14.3 57.8 38 0.3 32.5
11:45 1027 30.33 856 25.28 13.9 57.1 34 -1.6 29.2
11:50 1027 30.33 856 25.28 13.6 56.5 36 -1 30.1
11:55 1026 30.3 856 25.28 13.4 56.2 37 -1.1 30.1
12:00 1026 30.3 856 25.28 13.9 57.1 34 -1.5 29.3
12:05 1026 30.3 856 25.28 14 57.2 34 -1.5 29.4
12:10 1026 30.3 856 25.28 14.1 57.3 34 -1.5 29.3
12:15 1026 30.3 856 25.28 14.3 57.7 33 -1.9 28.6
12:20 1026 30.3 855 25.25 14.2 57.6 34 -1.4 29.5
12:25 1026 30.3 855 25.25 14.7 58.5 32 -1.6 29
12:30 1026 30.3 855 25.25 14.9 58.8 32 -1.7 29
12:35 1026 30.3 855 25.25 13.9 57 33 -1.9 28.5
12:40 1026 30.3 855 25.25 14 57.2 32 -2.3 27.9
12:45 1026 30.3 855 25.25 14.6 58.3 32 -2 28.4
12:50 1026 30.3 855 25.25 14.2 57.6 33 -1.9 28.5
12:55 1026 30.3 855 25.25 13.2 55.8 35 -1.6 29
13:00 1026 30.3 855 25.25 14.1 57.4 32 -2.1 28.2
13:05 1026 30.3 855 25.25 14.6 58.3 33 -1.5 29.2
13:10 1026 30.3 855 25.25 13.9 57 34 -1.5 29.2
13:15 1026 30.3 855 25.25 13.7 56.6 33 -2.2 28
13:20 1026 30.3 855 25.25 14.7 58.4 30 -2.5 27.5
13:25 1026 30.3 855 25.25 14.4 58 33 -1.5 29.3
13:30 1026 30.3 855 25.25 14.7 58.5 30 -2.7 27.1
13:35 1026 30.3 855 25.25 14.3 57.7 30 -2.8 27
13:40 1026 30.3 855 25.25 15.2 59.4 30 -2.3 27.8
13:45 1026 30.3 855 25.25 15.4 59.7 29 -2.4 27.6
13:50 1026 30.3 855 25.25 14.7 58.4 31 -2.3 27.8
13:55 1026 30.3 855 25.25 13.9 56.9 32 -2.7 27.2
14:00 1026 30.3 855 25.25 13.2 55.8 33 -2.5 27.6
14:05 1026 30.3 855 25.25 13.2 55.7 31 -3.6 25.5
14:10 1025 30.27 855 25.25 12.8 55 33 -3.1 26.4
14:15 1025 30.27 855 25.25 13 55.4 32 -3.2 26.2
14:20 1025 30.27 855 25.25 15.1 59.2 30 -2.4 27.7
14:25 1025 30.27 855 25.25 15.2 59.3 33 -0.7 30.7
14:30 1025 30.27 855 25.25 14.1 57.4 34 -1.5 29.4
14:35 1025 30.27 854 25.22 14.1 57.4 33 -2 28.5
14:40 1025 30.27 854 25.22 14.2 57.5 30 -3.2 26.2
14:45 1025 30.27 854 25.22 15.3 59.5 30 -2.3 27.9
14:50 1025 30.27 854 25.22 14.7 58.4 30 -2.5 27.6
14:55 1025 30.27 854 25.22 14.7 58.5 30 -2.7 27.1
15:00 1025 30.27 854 25.22 14.7 58.5 28 -3.4 25.9
15:05 1025 30.27 854 25.22 15 59 29 -3 26.6
15:10 1025 30.27 854 25.22 15.4 59.7 27 -3.4 25.8
15:15 1025 30.27 854 25.22 16.1 60.9 27 -3 26.5
15:20 1025 30.27 854 25.22 16.2 61.1 26 -3.5 25.7
15:25 1025 30.27 854 25.22 15.9 60.6 27 -3.2 26.3
15:30 1025 30.27 854 25.22 16 60.7 26 -3.2 26.2
15:35 1025 30.27 854 25.22 15.7 60.2 28 -2.7 27.1
15:40 1025 30.27 854 25.22 15.7 60.3 27 -3.3 26
15:45 1025 30.27 854 25.22 16.3 61.3 26 -2.9 26.8
15:50 1024 30.24 854 25.22 16.7 62.1 25 -3.3 26.1
15:55 1024 30.24 854 25.22 16.5 61.7 27 -2.5 27.5
16:00 1024 30.24 854 25.22 15.5 59.8 30 -1.9 28.6
16:05 1024 30.24 853 25.19 15.1 59.1 27 -3.6 25.5
16:10 1024 30.24 853 25.19 15.4 59.8 28 -3.1 26.4
16:15 1024 30.24 853 25.19 15.9 60.6 26 -3.5 25.8
16:20 1024 30.24 853 25.19 16.1 61 27 -2.9 26.9
16:25 1024 30.24 853 25.19 16.1 60.9 26 -3.6 25.6
16:30 1024 30.24 853 25.19 17 62.6 25 -3.1 26.4
16:35 1024 30.24 853 25.19 16.2 61.2 26 -3.2 26.3
16:40 1024 30.24 853 25.19 16.5 61.6 25 -3.4 25.9
16:45 1024 30.24 853 25.19 16.4 61.4 25 -3.4 25.9
16:50 1024 30.24 853 25.19 16.6 61.8 26 -2.8 26.9
16:55 1024 30.24 853 25.19 16.8 62.3 26 -2.9 26.7
17:00 1024 30.24 853 25.19 16.3 61.4 27 -2.5 27.5
17:05 1024 30.24 853 25.19 16 60.8 26 -3.2 26.2
17:10 1024 30.24 853 25.19 16 60.8 26 -3.5 25.7
17:15 1024 30.24 853 25.19 16.5 61.7 27 -2.6 27.3
17:20 1024 30.24 853 25.19 15.7 60.2 27 -3.3 26.1
17:25 1023 30.21 853 25.19 15 58.9 28 -3.5 25.7
17:30 1024 30.24 853 25.19 15.2 59.3 27 -3.5 25.6
17:35 1023 30.21 853 25.19 15.6 60.2 27 -3.3 26
17:40 1023 30.21 853 25.19 16.6 61.8 25 -3.6 25.5
17:45 1023 30.21 853 25.19 16.4 61.6 26 -2.9 26.7
17:50 1023 30.21 853 25.19 16.4 61.6 26 -3 26.7
17:55 1023 30.21 853 25.19 16.5 61.6 28 -2.2 28
18:00 1023 30.21 852 25.16 16.2 61.2 25 -3.9 24.9
18:05 1023 30.21 852 25.16 16.1 61 27 -2.9 26.8
18:10 1023 30.21 852 25.16 16 60.8 27 -3 26.5
18:15 1023 30.21 852 25.16 15.6 60 28 -2.9 26.7
18:20 1023 30.21 852 25.16 14.8 58.6 29 -3.1 26.4
18:25 1023 30.21 852 25.16 14.5 58.1 29 -3.4 25.8
18:30 1023 30.21 852 25.16 14.2 57.6 29 -3.5 25.7
18:35 1023 30.21 852 25.16 14.2 57.5 28 -4.2 24.4
18:40 1023 30.21 852 25.16 14.4 58 29 -3.4 25.9
18:45 1023 30.21 852 25.16 14.3 57.7 29 -3.3 26.1
18:50 1023 30.21 852 25.16 14.4 57.8 30 -3 26.6
18:55 1023 30.21 852 25.16 13.8 56.9 31 -2.9 26.8
19:00 1023 30.21 852 25.16 13.7 56.7 30 -3.5 25.7
19:05 1023 30.21 852 25.16 13.7 56.6 29 -3.7 25.3
19:10 1023 30.21 852 25.16 13.7 56.6 30 -3.4 25.8
19:15 1023 30.21 852 25.16 13.6 56.5 31 -3.3 26.1
19:20 1023 30.21 852 25.16 13.7 56.6 30 -3.6 25.5
19:25 1023 30.21 852 25.16 13.6 56.5 29 -3.8 25.1
19:30 1023 30.21 852 25.16 13.6 56.6 30 -3.7 25.3
19:35 1023 30.21 852 25.16 13.6 56.5 29 -3.9 25.1
19:40 1023 30.21 852 25.16 13.6 56.4 29 -4.1 24.6
19:45 1023 30.21 852 25.16 13.5 56.3 29 -3.9 24.9
19:50 1023 30.21 852 25.16 13.4 56.2 30 -3.7 25.4
19:55 1023 30.21 852 25.16 13.2 55.8 34 -2.1 28.2
20:00 1023 30.21 852 25.16 12.9 55.2 33 -2.9 26.9
20:05 1023 30.21 852 25.16 12.9 55.2 32 -3.5 25.7
20:10 1023 30.21 852 25.16 12.9 55.2 34 -2.7 27.1
20:15 1023 30.21 852 25.16 12.8 55 38 -1.1 30.1
20:20 1023 30.21 852 25.16 12.3 54.1 46 0.9 33.6
20:25 1023 30.21 852 25.16 11.3 52.3 51 1.5 34.6
20:30 1023 30.21 852 25.16 10.5 50.9 52 1.1 34
20:35 1023 30.21 852 25.16 10 49.9 58 2.1 35.8
20:40 1023 30.21 852 25.16 9.1 48.5 62 2.3 36.1
20:45 1023 30.21 852 25.16 8.7 47.7 58 0.9 33.7
20:50 1023 30.21 852 25.16 9.1 48.3 50 -0.7 30.7
20:55 1023 30.21 852 25.16 9.5 49 52 0 32
21:00 1023 30.21 852 25.16 8.8 47.9 55 0.4 32.7
21:05 1023 30.21 852 25.16 8.5 47.2 55 0.1 32.2
21:10 1023 30.21 852 25.16 8.4 47.1 55 -0.1 31.8
21:15 1023 30.21 852 25.16 8.5 47.3 55 0.1 32.1
21:20 1023 30.21 852 25.16 8.2 46.8 58 0.5 32.9
21:25 1023 30.21 852 25.16 7.8 46 60 0.5 33
21:30 1023 30.21 852 25.16 7.8 46.1 60 0.5 32.9
21:35 1023 30.21 852 25.16 8 46.3 58 0.3 32.6
21:40 1023 30.21 852 25.16 7.8 46.1 60 0.6 33
21:45 1023 30.21 852 25.16 7.8 46 58 0.1 32.1
21:50 1023 30.21 852 25.16 8.2 46.8 56 -0.1 31.9
21:55 1023 30.21 852 25.16 8.5 47.2 54 -0.3 31.5
22:00 1023 30.21 852 25.16 8.7 47.6 54 -0.2 31.7
22:05 1023 30.21 852 25.16 8.7 47.6 55 0.1 32.1
22:10 1023 30.21 852 25.16 8.5 47.4 55 -0 32
22:15 1023 30.21 852 25.16 8.5 47.3 56 0.1 32.2
22:20 1023 30.21 852 25.16 8.3 46.9 55 -0.1 31.8
22:25 1023 30.21 852 25.16 8.5 47.2 53 -0.6 30.8
22:30 1023 30.21 852 25.16 8.7 47.7 53 -0.3 31.4
22:35 1023 30.21 852 25.16 8.7 47.6 52 -0.6 30.9
22:40 1023 30.21 852 25.16 8.8 47.8 51 -0.7 30.7
22:45 1023 30.21 852 25.16 8.9 47.9 50 -0.9 30.3
22:50 1023 30.21 852 25.16 9 48.1 50 -0.9 30.3
22:55 1023 30.21 852 25.16 8.9 48.1 50 -1 30.2
23:00 1023 30.21 852 25.16 8.9 48 50 -1 30.3
23:05 1023 30.21 852 25.16 8.8 47.9 51 -0.8 30.6
23:10 1023 30.21 852 25.16 8.7 47.6 54 -0.1 31.8
23:15 1023 30.21 852 25.16 8.4 47 55 -0.2 31.6
23:20 1023 30.21 852 25.16 8.1 46.6 56 -0.2 31.6
23:25 1023 30.21 852 25.16 8 46.5 56 -0.3 31.5
23:30 1023 30.21 852 25.16 8.1 46.5 56 -0.2 31.6
23:35 1023 30.21 852 25.16 8.1 46.6 56 -0.2 31.7
23:40 1023 30.21 852 25.16 8.2 46.7 54 -0.5 31.2
23:45 1023 30.21 852 25.16 8.1 46.7 56 -0.1 31.8
23:50 1022 30.18 852 25.16 8 46.4 57 0 32
23:55 1022 30.18 852 25.16 7.8 46.1 57 -0.1 31.9
24:00 1022 30.18 852 25.16 7.8 46 57 -0.1 31.9